Julian Carroll Airport
KJKL : now visible

Airfield :











YOU CAN JOIN US ON...

 
LOGIN :

Register | Disclaimer

   EN    FR    IT 

 









Legend :    VFR   Marginal VFR   IFR   Intensive IFR   Very Intensive IFR
Visi :
Ceiling :
>= 8 km
>= 3000ft
5 to 8 km
1000 to 3000 ft
1500m to 5 km
500 to 1000 ft
800 to 1500m
200 to 500 ft
< 800m
< 200 ft
Symbols :   Thunderstorms  Fog  Heavy snow  Heavy precipitations  Wind > 20 kt






- Airport Elevation : 1381 ft


KJKL - Julian Carroll

CURRENT METAR :
  • 080603Z AUTO 23005KT 10SM BKN024 20/16 A2979 RMK AO2 T02000156

EXPIRED METARs :
  • 080553Z AUTO VRB06G16KT 10SM SCT025 20/16 A2979 RMK AO2 SLP074 T02000156 10233 20200 55008
  • 080453Z AUTO 23007G18KT 190V280 10SM CLR 21/16 A2979 RMK AO2 SLP072 T02060156 402720144
  • 080353Z AUTO 23009G14KT 10SM CLR 21/14 A2981 RMK AO2 SLP080 T02110144

TAF KJKL
Valid from the 08 at 06:00 until the 09 at 06:00 UTC


080524Z 0806/0906 23011G15KT P6SM SCT050 BKN250
FM080800 25008G15KT P6SM BKN025
FM081100 VRB04KT P6SM VCTS OVC007CB
FM081600 27006KT P6SM BKN060



MET'MAP, your aeronautical weather chart ! - Copyright ORBIFLY December 2007 - Disclaimer

ORBIFLY MET'MAP TEAM :

Programming & Development : Alexandra Zaïnal
Concept & original design : Baudouin d'Aumeries
Assistance for programming : Marc-Olivier Méhu
Technical & hardware support : Manuel Goepfert

Contact : metmap@orbifly.com




SOURCES & CREDITS :

   NOAA       Earth
Advisory